Time;durP1;ratioP1;P1;durP2;ratioP2;P2;SDS_P1;SDS_P2;PMS_P1;PMS_P2;Temp;Humidity;BMP_temperature;BMP_pressure;BME280_temperature;BME280_humidity;BME280_pressure;Samples;Min_cycle;Max_cycle;Signal;HPM_P1;HPM_P2
2022/11/28 00:02:12;;;;;;;5.18;4.25;;;6.70;99.90;;;;;;5055316;28;20054;-75
2022/11/28 00:04:37;;;;;;;5.20;4.45;;;6.70;99.90;;;;;;5062243;28;20253;-75
2022/11/28 00:07:03;;;;;;;6.30;5.07;;;6.80;99.90;;;;;;5062351;28;20012;-75
2022/11/28 00:09:29;;;;;;;5.07;4.57;;;6.90;99.90;;;;;;5046464;28;20217;-75
2022/11/28 00:11:55;;;;;;;4.45;4.05;;;6.90;99.90;;;;;;5061381;28;20392;-75
2022/11/28 00:14:20;;;;;;;6.80;5.00;;;6.80;99.90;;;;;;5045923;28;20032;-75
2022/11/28 00:16:46;;;;;;;5.88;5.00;;;6.70;99.90;;;;;;5063166;28;20074;-75
2022/11/28 00:19:13;;;;;;;5.05;4.57;;;6.70;99.90;;;;;;5060582;28;20029;-75
2022/11/28 00:21:39;;;;;;;6.72;4.97;;;6.70;99.90;;;;;;5063498;28;20043;-75
2022/11/28 00:24:06;;;;;;;6.90;4.60;;;6.80;99.90;;;;;;5059961;28;20033;-75
2022/11/28 00:26:37;;;;;;;6.82;4.75;;;6.80;99.90;;;;;;5063493;28;20032;-75
2022/11/28 00:29:04;;;;;;;7.38;4.90;;;6.80;99.90;;;;;;5063465;28;20016;-75
2022/11/28 00:31:34;;;;;;;5.20;4.70;;;6.80;99.90;;;;;;5059995;28;20099;-75
2022/11/28 00:34:00;;;;;;;6.38;5.05;;;6.80;99.90;;;;;;5062312;28;20169;-75
2022/11/28 00:36:27;;;;;;;6.35;4.93;;;6.90;99.90;;;;;;5060537;28;20409;-76
2022/11/28 00:38:53;;;;;;;6.50;5.07;;;6.80;99.90;;;;;;5062657;28;20095;-76
2022/11/28 00:41:25;;;;;;;6.10;5.47;;;6.90;99.90;;;;;;5060225;28;20366;-75
2022/11/28 00:43:52;;;;;;;6.20;5.60;;;6.90;99.90;;;;;;5062354;28;20484;-75
2022/11/28 00:46:19;;;;;;;8.82;5.60;;;6.90;99.90;;;;;;5060363;28;20120;-75
2022/11/28 00:48:45;;;;;;;8.00;4.95;;;6.90;99.90;;;;;;5062413;28;20028;-75
2022/11/28 00:51:23;;;;;;;5.50;4.80;;;6.90;99.90;;;;;;5060130;28;20311;-75
2022/11/28 00:53:52;;;;;;;6.10;5.22;;;7.00;99.90;;;;;;5060950;28;20422;-75
2022/11/28 00:56:20;;;;;;;5.40;4.90;;;7.00;99.90;;;;;;5063700;28;20031;-75
2022/11/28 00:58:50;;;;;;;7.05;5.03;;;7.00;99.90;;;;;;5058074;28;20037;-75
2022/11/28 01:01:28;;;;;;;7.97;5.13;;;6.90;99.90;;;;;;5060319;28;20500;-76
2022/11/28 01:03:56;;;;;;;5.18;4.68;;;6.90;99.90;;;;;;5059332;28;20040;-76
2022/11/28 01:06:42;;;;;;;7.32;5.15;;;6.90;99.90;;;;;;5062853;28;20540;-75
2022/11/28 01:09:12;;;;;;;5.85;5.30;;;6.90;99.90;;;;;;5044298;28;20472;-75
2022/11/28 01:11:39;;;;;;;8.38;5.78;;;6.90;99.90;;;;;;5041922;28;20369;-76
2022/11/28 01:14:05;;;;;;;8.05;5.57;;;7.00;99.90;;;;;;5062172;28;20467;-75
2022/11/28 01:16:31;;;;;;;8.68;4.88;;;7.00;99.90;;;;;;5045125;28;20047;-75
2022/11/28 01:18:57;;;;;;;6.57;5.38;;;7.00;99.90;;;;;;5060472;28;20028;-75
2022/11/28 01:21:23;;;;;;;8.65;5.85;;;7.00;99.90;;;;;;5061450;28;20104;-75
2022/11/28 01:23:49;;;;;;;6.38;5.18;;;7.00;99.90;;;;;;5042755;28;20036;-75
2022/11/28 01:26:19;;;;;;;8.18;5.65;;;7.00;99.90;;;;;;5061009;28;20033;-75
2022/11/28 01:28:45;;;;;;;7.65;5.80;;;7.00;99.90;;;;;;5044747;28;20033;-75
2022/11/28 01:31:14;;;;;;;9.10;5.95;;;7.00;99.90;;;;;;5062988;28;20106;-76
2022/11/28 01:33:40;;;;;;;6.90;5.82;;;7.00;99.90;;;;;;5060415;28;20067;-75
2022/11/28 01:36:06;;;;;;;9.95;5.97;;;7.00;99.90;;;;;;5045429;28;20024;-75
2022/11/28 01:38:33;;;;;;;7.28;6.13;;;7.00;99.90;;;;;;5061129;28;20056;-75
2022/11/28 01:40:59;;;;;;;9.00;6.07;;;7.00;99.90;;;;;;5044154;28;20119;-75
2022/11/28 01:43:25;;;;;;;9.45;6.13;;;7.00;99.90;;;;;;5053094;28;20476;-75
2022/11/28 01:45:51;;;;;;;8.38;6.75;;;7.00;99.90;;;;;;5047341;28;20028;-75
2022/11/28 01:48:24;;;;;;;9.02;5.95;;;7.00;99.90;;;;;;5064307;28;20025;-76
2022/11/28 01:50:54;;;;;;;8.60;5.35;;;7.00;99.90;;;;;;5064737;28;20095;-75
2022/11/28 01:53:20;;;;;;;8.15;5.57;;;7.00;99.90;;;;;;5066860;28;20422;-75
2022/11/28 01:55:54;;;;;;;11.50;6.43;;;7.00;99.90;;;;;;5064929;28;20048;-75
2022/11/28 01:58:20;;;;;;;8.88;6.30;;;7.00;99.90;;;;;;5059580;28;20025;-75
2022/11/28 02:00:47;;;;;;;8.70;6.13;;;7.00;99.90;;;;;;5044480;28;20083;-76
2022/11/28 02:03:21;;;;;;;6.95;5.72;;;7.00;99.90;;;;;;5065251;28;20090;-75
2022/11/28 02:05:51;;;;;;;8.93;5.75;;;7.00;99.90;;;;;;5044841;28;20396;-76
2022/11/28 02:08:17;;;;;;;8.18;5.75;;;7.00;99.90;;;;;;5062283;28;20024;-75
2022/11/28 02:10:50;;;;;;;9.10;5.63;;;7.00;99.90;;;;;;5062340;28;20078;-75
2022/11/28 02:13:19;;;;;;;7.97;6.28;;;7.00;99.90;;;;;;5044581;28;20025;-75
2022/11/28 02:15:56;;;;;;;8.40;5.90;;;7.00;99.90;;;;;;5050381;28;20395;-75
2022/11/28 02:18:45;;;;;;;11.20;6.10;;;7.00;99.90;;;;;;5063058;28;20031;-76
2022/11/28 02:21:27;;;;;;;7.22;5.38;;;7.00;99.90;;;;;;5062497;28;20246;-76
2022/11/28 02:24:11;;;;;;;9.83;5.63;;;7.00;99.90;;;;;;5065351;28;20032;-76
2022/11/28 02:27:01;;;;;;;6.50;5.90;;;7.00;99.90;;;;;;5048452;28;20328;-75
2022/11/28 02:29:54;;;;;;;9.15;5.70;;;7.10;99.90;;;;;;5044260;28;20472;-75
2022/11/28 02:32:57;;;;;;;6.15;5.47;;;7.10;99.90;;;;;;5062237;28;20025;-75
2022/11/28 02:35:35;;;;;;;6.75;5.72;;;7.10;99.90;;;;;;5062412;28;20021;-76
2022/11/28 02:38:12;;;;;;;5.65;5.13;;;7.10;99.90;;;;;;5046146;28;20041;-75
2022/11/28 02:40:54;;;;;;;10.93;6.25;;;7.10;99.90;;;;;;5065171;28;20074;-76
2022/11/28 02:43:45;;;;;;;8.18;6.22;;;7.10;99.90;;;;;;5062686;28;20025;-76
2022/11/28 02:46:16;;;;;;;6.78;5.60;;;7.10;99.90;;;;;;5036719;28;20555;-76
2022/11/28 02:48:54;;;;;;;6.75;5.43;;;7.10;99.90;;;;;;5064617;28;20036;-76
2022/11/28 02:51:42;;;;;;;8.35;5.72;;;7.10;99.90;;;;;;5063919;28;20178;-76
2022/11/28 02:54:11;;;;;;;8.43;5.82;;;7.10;99.90;;;;;;5044509;28;20209;-75
2022/11/28 02:56:37;;;;;;;6.30;5.65;;;7.10;99.90;;;;;;5045633;28;20035;-75
2022/11/28 02:59:04;;;;;;;6.70;5.90;;;7.10;99.90;;;;;;5061588;28;20024;-76
2022/11/28 03:01:33;;;;;;;6.60;5.90;;;7.20;99.90;;;;;;5062250;28;20049;-75
2022/11/28 03:04:02;;;;;;;8.38;6.30;;;7.10;99.90;;;;;;5046352;28;20097;-76
2022/11/28 03:06:37;;;;;;;9.00;6.35;;;7.20;99.90;;;;;;5062757;28;20132;-75
2022/11/28 03:09:17;;;;;;;7.20;6.13;;;7.20;99.90;;;;;;5045053;28;20052;-76
2022/11/28 03:11:58;;;;;;;8.13;6.10;;;7.20;99.90;;;;;;5061552;28;20017;-75
2022/11/28 03:14:35;;;;;;;7.97;5.70;;;7.20;99.90;;;;;;5063403;28;20029;-75
2022/11/28 03:17:25;;;;;;;7.05;6.20;;;7.20;99.90;;;;;;5044022;28;20123;-75
2022/11/28 03:19:56;;;;;;;6.72;5.97;;;7.20;99.90;;;;;;5052622;28;20119;-76
2022/11/28 03:22:35;;;;;;;8.02;5.75;;;7.20;99.90;;;;;;5062355;28;20032;-75
2022/11/28 03:25:10;;;;;;;7.97;6.43;;;7.20;99.90;;;;;;5061461;28;20071;-76
2022/11/28 03:27:50;;;;;;;6.85;5.88;;;7.30;99.90;;;;;;5064703;28;20025;-76
2022/11/28 03:30:25;;;;;;;8.82;5.93;;;7.30;99.90;;;;;;5060882;28;20054;-76
2022/11/28 03:32:54;;;;;;;10.23;6.30;;;7.20;99.90;;;;;;5059744;28;20065;-76
2022/11/28 03:35:25;;;;;;;8.93;6.43;;;7.20;99.90;;;;;;5061062;28;20396;-76
2022/11/28 03:37:55;;;;;;;9.45;6.05;;;7.20;99.90;;;;;;5046148;28;20021;-76
2022/11/28 03:40:28;;;;;;;9.25;6.13;;;7.30;99.90;;;;;;5043860;28;20447;-76
2022/11/28 03:43:08;;;;;;;9.15;6.50;;;7.20;99.90;;;;;;5062778;28;20051;-76
2022/11/28 03:45:50;;;;;;;7.43;6.28;;;7.20;99.90;;;;;;5046742;28;20395;-75
2022/11/28 03:48:25;;;;;;;7.20;6.20;;;7.20;99.90;;;;;;5063575;28;20396;-76
2022/11/28 03:51:00;;;;;;;6.85;5.82;;;7.20;99.90;;;;;;5065945;28;20023;-76
2022/11/28 03:53:33;;;;;;;6.85;6.03;;;7.20;99.90;;;;;;5061315;28;20552;-75
2022/11/28 03:56:33;;;;;;;8.05;6.55;;;7.20;99.90;;;;;;5061520;28;20029;-75
2022/11/28 03:59:09;;;;;;;7.60;6.05;;;7.20;99.90;;;;;;5044677;28;20041;-76
2022/11/28 04:01:40;;;;;;;8.35;6.47;;;7.20;99.90;;;;;;5041336;28;20501;-76
2022/11/28 04:04:33;;;;;;;9.65;6.72;;;7.20;99.90;;;;;;5040865;28;20078;-75
2022/11/28 04:07:25;;;;;;;9.75;6.45;;;7.30;99.90;;;;;;5042038;28;20045;-76
2022/11/28 04:10:16;;;;;;;7.15;5.63;;;7.30;99.90;;;;;;5041546;28;20056;-75
2022/11/28 04:13:08;;;;;;;9.48;6.00;;;7.30;99.90;;;;;;5043714;28;20056;-76
2022/11/28 04:15:40;;;;;;;8.18;6.20;;;7.30;99.90;;;;;;5040599;28;20392;-75
2022/11/28 04:18:25;;;;;;;9.68;5.97;;;7.30;99.90;;;;;;5040552;28;20026;-75
2022/11/28 04:21:07;;;;;;;6.88;6.07;;;7.30;99.90;;;;;;5042895;28;20030;-76
2022/11/28 04:23:36;;;;;;;8.77;6.25;;;7.40;99.90;;;;;;5040711;28;20033;-76
2022/11/28 04:26:17;;;;;;;8.07;5.85;;;7.40;99.90;;;;;;5043601;28;20029;-76
2022/11/28 04:28:45;;;;;;;8.68;6.50;;;7.40;99.90;;;;;;5042670;28;20025;-76
2022/11/28 04:31:13;;;;;;;7.72;6.30;;;7.40;99.90;;;;;;5041513;28;20087;-75
2022/11/28 04:33:43;;;;;;;11.70;6.50;;;7.40;99.90;;;;;;5044323;28;20028;-75
2022/11/28 04:36:11;;;;;;;7.55;5.55;;;7.40;99.90;;;;;;5074938;28;20029;-76
2022/11/28 04:38:39;;;;;;;8.50;5.90;;;7.40;99.90;;;;;;5040822;28;20025;-75
2022/11/28 04:41:19;;;;;;;8.85;5.60;;;7.40;99.90;;;;;;5043076;28;20410;-75
2022/11/28 04:43:52;;;;;;;8.02;6.45;;;7.40;99.90;;;;;;5040712;28;20436;-75
2022/11/28 04:46:23;;;;;;;7.63;5.93;;;7.50;99.90;;;;;;5042335;28;20028;-76
2022/11/28 04:48:49;;;;;;;11.43;6.07;;;7.50;99.90;;;;;;5041643;28;20500;-76
2022/11/28 04:51:18;;;;;;;6.40;5.80;;;7.50;99.90;;;;;;5041914;28;20032;-76
2022/11/28 04:54:10;;;;;;;8.63;6.28;;;7.50;99.90;;;;;;5041681;28;20111;-76
2022/11/28 04:56:45;;;;;;;9.93;5.63;;;7.60;99.90;;;;;;5041098;28;20661;-76
2022/11/28 04:59:13;;;;;;;8.70;6.10;;;7.50;99.90;;;;;;5039586;28;20022;-76
2022/11/28 05:01:41;;;;;;;7.97;5.57;;;7.50;99.90;;;;;;5049854;28;20055;-76
2022/11/28 05:04:07;;;;;;;6.20;5.47;;;7.50;99.90;;;;;;5062025;28;20025;-75
2022/11/28 05:06:35;;;;;;;7.50;5.97;;;7.50;99.90;;;;;;5061014;28;20028;-75
2022/11/28 05:09:01;;;;;;;7.38;5.40;;;7.50;99.90;;;;;;5045744;28;20071;-76
2022/11/28 05:11:27;;;;;;;5.97;5.43;;;7.50;99.90;;;;;;5061393;28;20111;-76
2022/11/28 05:13:54;;;;;;;8.63;5.75;;;7.50;99.90;;;;;;5043274;28;20077;-76
2022/11/28 05:16:21;;;;;;;7.05;5.72;;;7.50;99.90;;;;;;5061205;28;20036;-75
2022/11/28 05:18:47;;;;;;;6.88;5.20;;;7.50;99.90;;;;;;5061161;28;20401;-76
2022/11/28 05:21:13;;;;;;;9.07;6.43;;;7.50;99.90;;;;;;5060814;28;20028;-75
2022/11/28 05:23:41;;;;;;;6.28;5.60;;;7.50;99.90;;;;;;5062005;28;20036;-76
2022/11/28 05:26:09;;;;;;;10.93;6.50;;;7.50;99.90;;;;;;5060588;28;20029;-75
2022/11/28 05:28:35;;;;;;;6.55;5.95;;;7.50;99.90;;;;;;5061351;28;20058;-76
2022/11/28 05:31:02;;;;;;;6.07;5.05;;;7.50;99.90;;;;;;5060505;28;20434;-75
2022/11/28 05:33:29;;;;;;;5.88;4.95;;;7.50;99.90;;;;;;5043917;28;20467;-76
2022/11/28 05:35:55;;;;;;;8.13;5.63;;;7.60;99.90;;;;;;5063240;28;20082;-76
2022/11/28 05:38:21;;;;;;;8.15;6.50;;;7.60;99.90;;;;;;5042319;28;20025;-76
2022/11/28 05:40:47;;;;;;;8.23;6.05;;;7.60;99.90;;;;;;5062337;28;20542;-76
2022/11/28 05:43:12;;;;;;;6.75;5.95;;;7.60;99.90;;;;;;5059600;28;20025;-76
2022/11/28 05:45:44;;;;;;;7.00;5.78;;;7.60;99.90;;;;;;5062532;28;20031;-75
2022/11/28 05:48:10;;;;;;;7.43;6.30;;;7.60;99.90;;;;;;5059927;28;20029;-76
2022/11/28 05:50:40;;;;;;;6.28;5.57;;;7.60;99.90;;;;;;5058238;28;20029;-75
2022/11/28 05:53:06;;;;;;;7.88;6.28;;;7.60;99.90;;;;;;5064064;28;20021;-76
2022/11/28 05:55:32;;;;;;;7.88;6.13;;;7.60;99.90;;;;;;5044469;28;20467;-76
2022/11/28 05:57:58;;;;;;;6.68;5.88;;;7.60;99.90;;;;;;5062657;28;20048;-75
2022/11/28 06:00:24;;;;;;;6.88;6.18;;;7.60;99.90;;;;;;5062694;28;20059;-76
2022/11/28 06:02:49;;;;;;;8.15;6.05;;;7.60;99.90;;;;;;5045035;28;20059;-76
2022/11/28 06:05:15;;;;;;;6.72;6.13;;;7.60;99.90;;;;;;5044660;28;20025;-76
2022/11/28 06:07:41;;;;;;;8.60;5.85;;;7.60;99.90;;;;;;5062744;28;20029;-76
2022/11/28 06:10:07;;;;;;;5.90;5.28;;;7.60;99.90;;;;;;5062166;28;20016;-76
2022/11/28 06:12:33;;;;;;;7.57;5.38;;;7.60;99.90;;;;;;5062593;28;20488;-76
2022/11/28 06:14:58;;;;;;;6.07;5.38;;;7.60;99.90;;;;;;5059829;28;20019;-76
2022/11/28 06:17:24;;;;;;;6.60;5.47;;;7.60;99.90;;;;;;5043526;28;20028;-76
2022/11/28 06:19:50;;;;;;;8.75;6.07;;;7.60;99.90;;;;;;5062406;28;20099;-76
2022/11/28 06:22:15;;;;;;;6.95;5.47;;;7.60;99.90;;;;;;5061387;28;20025;-76
2022/11/28 06:24:41;;;;;;;7.57;5.88;;;7.50;99.90;;;;;;5047099;28;20025;-75
2022/11/28 06:27:07;;;;;;;7.32;5.43;;;7.60;99.90;;;;;;5053699;28;20017;-76
2022/11/28 06:29:33;;;;;;;5.35;4.85;;;7.50;99.90;;;;;;5054790;28;20431;-76
2022/11/28 06:31:58;;;;;;;7.28;5.40;;;7.50;99.90;;;;;;5054089;28;20107;-76
2022/11/28 06:34:24;;;;;;;9.18;6.30;;;7.50;99.90;;;;;;5054515;28;20034;-75
2022/11/28 06:36:50;;;;;;;9.57;6.38;;;7.50;99.90;;;;;;5054647;28;20018;-75
2022/11/28 06:39:16;;;;;;;12.40;6.40;;;7.50;99.90;;;;;;5053463;28;20032;-75
2022/11/28 06:41:42;;;;;;;8.98;6.05;;;7.50;99.90;;;;;;5054493;28;20419;-75
2022/11/28 06:44:12;;;;;;;12.65;7.30;;;7.60;99.90;;;;;;5054848;28;20052;-75
2022/11/28 06:46:38;;;;;;;7.18;6.45;;;7.60;99.90;;;;;;5059191;28;20032;-75
2022/11/28 06:49:03;;;;;;;8.55;6.13;;;7.60;99.90;;;;;;5055267;28;20029;-75
2022/11/28 06:51:29;;;;;;;10.38;6.28;;;7.60;99.90;;;;;;5058474;28;20107;-75
2022/11/28 06:53:55;;;;;;;6.57;5.90;;;7.60;99.90;;;;;;5036957;28;20040;-75
2022/11/28 06:56:21;;;;;;;6.22;5.50;;;7.60;99.90;;;;;;5044727;28;20025;-75
2022/11/28 06:58:53;;;;;;;8.90;5.55;;;7.60;99.90;;;;;;5052483;28;20446;-75
2022/11/28 07:01:21;;;;;;;8.30;6.20;;;7.60;99.90;;;;;;5074609;28;20049;-75
2022/11/28 07:03:48;;;;;;;10.75;6.47;;;7.60;99.90;;;;;;5062710;28;20065;-75
2022/11/28 07:06:16;;;;;;;11.30;8.40;;;7.60;99.90;;;;;;5074748;28;20510;-75
2022/11/28 07:08:42;;;;;;;10.20;7.50;;;7.60;99.90;;;;;;5075011;28;20109;-75
2022/11/28 07:11:21;;;;;;;11.25;8.65;;;7.60;99.90;;;;;;5056489;28;20611;-75
2022/11/28 07:13:48;;;;;;;12.88;8.68;;;7.60;99.90;;;;;;5036532;28;20036;-75
2022/11/28 07:16:20;;;;;;;11.95;8.05;;;7.60;99.90;;;;;;5068047;28;20024;-75
2022/11/28 07:18:46;;;;;;;14.65;8.13;;;7.60;99.90;;;;;;5074593;28;20039;-75
2022/11/28 07:21:13;;;;;;;12.07;7.95;;;7.60;99.90;;;;;;5063578;28;20029;-75
2022/11/28 07:23:41;;;;;;;8.55;7.03;;;7.60;99.90;;;;;;5062896;28;20025;-75
2022/11/28 07:26:08;;;;;;;12.68;8.82;;;7.60;99.90;;;;;;5063860;28;20025;-75
2022/11/28 07:28:34;;;;;;;10.75;7.30;;;7.60;99.90;;;;;;5061709;28;20081;-75
2022/11/28 07:31:20;;;;;;;10.73;8.02;;;7.60;99.90;;;;;;5044645;28;20017;-75
2022/11/28 07:33:48;;;;;;;13.60;8.90;;;7.60;99.90;;;;;;5061095;28;20400;-75
2022/11/28 07:36:20;;;;;;;11.57;8.48;;;7.70;99.90;;;;;;5065356;28;20112;-75
2022/11/28 07:38:47;;;;;;;9.57;7.90;;;7.70;99.90;;;;;;5043754;28;20361;-75
2022/11/28 07:41:14;;;;;;;10.43;7.47;;;7.70;99.90;;;;;;5063941;28;20040;-75
2022/11/28 07:43:41;;;;;;;9.50;8.25;;;7.80;99.90;;;;;;5061022;28;20033;-75
2022/11/28 07:46:10;;;;;;;8.82;7.30;;;7.80;99.90;;;;;;5063809;28;20021;-75
2022/11/28 07:48:36;;;;;;;9.57;7.32;;;7.80;99.90;;;;;;5061213;28;20427;-75
2022/11/28 07:51:10;;;;;;;14.25;8.85;;;7.80;99.90;;;;;;5063933;28;20055;-75
2022/11/28 07:53:37;;;;;;;16.60;9.75;;;7.80;99.90;;;;;;5061734;28;20497;-75
2022/11/28 07:56:06;;;;;;;23.20;11.20;;;7.80;99.90;;;;;;5063126;28;20082;-75
2022/11/28 07:58:33;;;;;;;17.42;10.18;;;7.80;99.90;;;;;;5061161;28;20016;-75
2022/11/28 08:00:59;;;;;;;16.35;9.57;;;7.90;99.90;;;;;;5061804;28;20048;-75
2022/11/28 08:03:25;;;;;;;14.15;9.23;;;7.90;99.90;;;;;;5063371;28;20036;-75
2022/11/28 08:05:50;;;;;;;17.08;10.50;;;7.90;99.90;;;;;;5063436;28;20066;-75
2022/11/28 08:08:17;;;;;;;20.15;10.00;;;7.90;99.90;;;;;;5061205;28;20017;-75
2022/11/28 08:10:43;;;;;;;24.38;10.18;;;8.00;99.90;;;;;;5042945;28;20029;-75
2022/11/28 08:13:10;;;;;;;17.00;10.05;;;8.00;99.90;;;;;;5063952;28;20024;-75
2022/11/28 08:15:36;;;;;;;20.10;10.35;;;8.00;99.90;;;;;;5060346;28;20024;-75
2022/11/28 08:18:02;;;;;;;20.92;12.32;;;8.00;99.90;;;;;;5063792;28;20380;-75
2022/11/28 08:20:28;;;;;;;27.45;14.32;;;8.00;99.90;;;;;;5060106;28;20115;-74
2022/11/28 08:22:54;;;;;;;16.10;10.88;;;8.00;99.90;;;;;;5059192;28;20043;-75
2022/11/28 08:25:19;;;;;;;17.75;10.73;;;7.90;99.90;;;;;;5044795;28;20703;-75
2022/11/28 08:27:45;;;;;;;13.38;9.10;;;7.80;99.90;;;;;;5045269;28;20488;-75
2022/11/28 08:30:11;;;;;;;17.30;9.80;;;7.80;99.90;;;;;;5059770;28;20029;-75
2022/11/28 08:32:37;;;;;;;9.80;8.13;;;7.90;99.90;;;;;;5061174;28;20039;-75
2022/11/28 08:35:03;;;;;;;13.85;8.18;;;8.00;99.90;;;;;;5062500;28;20506;-75
2022/11/28 08:37:29;;;;;;;11.85;8.48;;;8.00;99.90;;;;;;5061513;28;20571;-75
2022/11/28 08:39:55;;;;;;;13.25;9.82;;;8.00;99.90;;;;;;5077428;28;20119;-75
2022/11/28 08:42:20;;;;;;;15.32;9.50;;;8.00;99.90;;;;;;5044093;28;20442;-75
2022/11/28 08:44:46;;;;;;;14.45;10.48;;;8.00;99.90;;;;;;5063942;28;20037;-75
2022/11/28 08:47:12;;;;;;;10.57;8.80;;;8.10;99.90;;;;;;5061065;28;20030;-75
2022/11/28 08:49:38;;;;;;;16.88;9.20;;;8.20;99.90;;;;;;5063550;28;20210;-75
2022/11/28 08:52:04;;;;;;;14.13;9.73;;;8.20;99.90;;;;;;5062727;28;20016;-75
2022/11/28 08:54:30;;;;;;;18.33;9.98;;;8.20;99.90;;;;;;5059690;28;20071;-75
2022/11/28 08:56:55;;;;;;;22.65;11.20;;;8.20;99.90;;;;;;5045568;28;20435;-75
2022/11/28 08:59:21;;;;;;;17.15;11.18;;;8.20;99.90;;;;;;5062404;28;20036;-75
2022/11/28 09:01:47;;;;;;;19.85;12.02;;;8.30;99.90;;;;;;5078886;28;20504;-75
2022/11/28 09:04:13;;;;;;;24.52;12.80;;;8.30;99.90;;;;;;5059572;28;20020;-75
2022/11/28 09:06:39;;;;;;;18.40;11.73;;;8.40;99.90;;;;;;5063025;28;20029;-75
2022/11/28 09:09:05;;;;;;;26.25;15.45;;;8.40;99.90;;;;;;5059731;28;20027;-75
2022/11/28 09:11:32;;;;;;;24.17;13.43;;;8.40;99.90;;;;;;5044651;28;20021;-75
2022/11/28 09:13:59;;;;;;;27.83;15.02;;;8.40;99.90;;;;;;5059249;28;20024;-75
2022/11/28 09:16:25;;;;;;;23.77;13.20;;;8.40;99.90;;;;;;5060362;28;20365;-75
2022/11/28 09:18:50;;;;;;;21.75;12.75;;;8.40;99.90;;;;;;5041615;28;20074;-75
2022/11/28 09:21:16;;;;;;;19.88;11.73;;;8.50;99.90;;;;;;5061897;28;20025;-75
2022/11/28 09:23:43;;;;;;;19.40;12.43;;;8.50;99.90;;;;;;5067423;28;20028;-75
2022/11/28 09:26:15;;;;;;;21.25;12.80;;;8.50;99.90;;;;;;5042964;28;20020;-75
2022/11/28 09:28:40;;;;;;;25.55;13.52;;;8.50;99.90;;;;;;5065403;28;20036;-75
2022/11/28 09:31:06;;;;;;;21.40;13.00;;;8.60;99.90;;;;;;5074323;28;20514;-76
2022/11/28 09:33:33;;;;;;;18.42;12.15;;;8.60;99.90;;;;;;5066275;28;20025;-76
2022/11/28 09:36:04;;;;;;;26.50;12.85;;;8.60;99.90;;;;;;5053021;28;20051;-75
2022/11/28 09:38:30;;;;;;;19.63;11.38;;;8.70;99.90;;;;;;5055481;28;20144;-76
2022/11/28 09:40:55;;;;;;;18.35;11.13;;;8.70;99.90;;;;;;5057938;28;20115;-76
2022/11/28 09:43:30;;;;;;;17.75;11.13;;;8.70;99.90;;;;;;5061439;28;20043;-75
2022/11/28 09:45:58;;;;;;;15.75;10.55;;;8.70;99.90;;;;;;5059652;28;20112;-75
2022/11/28 09:48:29;;;;;;;13.35;10.73;;;8.70;99.90;;;;;;5058214;28;20021;-76
2022/11/28 09:51:22;;;;;;;16.83;11.30;;;8.80;99.90;;;;;;5055461;28;20025;-76
2022/11/28 09:54:16;;;;;;;;;;;8.80;99.90;;;;;;5040294;28;20052;-76
2022/11/28 09:56:46;;;;;;;13.98;11.23;;;8.80;99.90;;;;;;5033566;28;19958;-75
2022/11/28 09:59:27;;;;;;;18.98;12.23;;;8.80;99.90;;;;;;5058194;28;20077;-76
2022/11/28 10:02:31;;;;;;;16.70;11.90;;;8.80;99.90;;;;;;5056190;28;20504;-75
2022/11/28 10:05:23;;;;;;;17.23;11.38;;;8.80;99.90;;;;;;5065588;28;20361;-76
2022/11/28 10:07:54;;;;;;;16.60;12.15;;;8.90;99.90;;;;;;5059236;28;20036;-75
2022/11/28 10:10:52;;;;;;;19.60;13.15;;;8.90;99.90;;;;;;5043522;28;20551;-76
2022/11/28 10:13:36;;;;;;;17.90;11.85;;;8.90;99.90;;;;;;5062936;28;20115;-75
2022/11/28 10:16:21;;;;;;;23.02;13.15;;;8.90;99.90;;;;;;5047246;28;20083;-74
2022/11/28 10:18:51;;;;;;;23.17;13.48;;;8.90;99.90;;;;;;5061684;28;20407;-74
2022/11/28 10:21:58;;;;;;;25.00;14.70;;;8.90;99.90;;;;;;5045875;28;20025;-74
2022/11/28 10:24:39;;;;;;;19.38;13.10;;;8.80;99.90;;;;;;5044361;28;20072;-75
2022/11/28 10:27:06;;;;;;;22.00;14.27;;;8.80;99.90;;;;;;5041870;28;20026;-74
2022/11/28 10:29:53;;;;;;;20.00;12.85;;;8.90;99.90;;;;;;5052830;28;20044;-75
2022/11/28 10:32:23;;;;;;;19.30;13.20;;;9.00;99.90;;;;;;5042874;28;20025;-74
2022/11/28 10:35:12;;;;;;;21.88;13.30;;;9.00;99.90;;;;;;5064717;28;20028;-74
2022/11/28 10:37:38;;;;;;;20.63;13.15;;;9.00;99.90;;;;;;5061460;28;20103;-74
2022/11/28 10:40:16;;;;;;;18.38;12.15;;;9.00;99.90;;;;;;5064880;28;20150;-75
2022/11/28 10:43:14;;;;;;;19.63;11.93;;;9.00;99.90;;;;;;5062413;28;20476;-75
2022/11/28 10:45:47;;;;;;;21.95;12.32;;;9.10;99.90;;;;;;5044882;28;20055;-74
2022/11/28 10:48:36;;;;;;;23.00;13.38;;;9.10;99.90;;;;;;5046125;28;20120;-74
2022/11/28 10:51:18;;;;;;;27.42;12.30;;;9.10;99.90;;;;;;5057834;28;20024;-74
2022/11/28 10:53:52;;;;;;;20.83;12.75;;;9.10;99.90;;;;;;5046604;28;20091;-74
2022/11/28 10:56:45;;;;;;;20.02;11.70;;;9.10;99.90;;;;;;5062048;28;20472;-75
2022/11/28 10:59:22;;;;;;;17.25;10.93;;;9.10;99.90;;;;;;5063719;28;20506;-75
2022/11/28 11:01:49;;;;;;;20.50;12.02;;;9.10;99.90;;;;;;5061844;28;20052;-74
2022/11/28 11:04:25;;;;;;;24.15;12.38;;;9.10;99.90;;;;;;5047273;28;20035;-74
2022/11/28 11:07:15;;;;;;;25.98;12.50;;;9.10;99.90;;;;;;5063103;28;20032;-74
2022/11/28 11:09:42;;;;;;;21.80;12.52;;;9.20;99.90;;;;;;5044096;28;20021;-74
2022/11/28 11:12:20;;;;;;;22.15;11.55;;;9.30;99.90;;;;;;5064743;28;20025;-74
2022/11/28 11:14:46;;;;;;;22.80;11.77;;;9.30;99.90;;;;;;5063506;28;20064;-75
2022/11/28 11:17:25;;;;;;;26.63;11.68;;;9.30;99.90;;;;;;5045045;28;20059;-74
2022/11/28 11:19:51;;;;;;;19.45;11.80;;;9.30;99.90;;;;;;5047441;28;20503;-75
2022/11/28 11:22:25;;;;;;;22.02;12.25;;;9.40;99.90;;;;;;5061370;28;20052;-74
2022/11/28 11:25:21;;;;;;;20.05;11.00;;;9.40;99.90;;;;;;5047422;28;20021;-75
2022/11/28 11:27:50;;;;;;;17.08;11.23;;;9.40;99.90;;;;;;5053447;28;20032;-75
2022/11/28 11:30:24;;;;;;;19.45;11.40;;;9.50;99.90;;;;;;5061344;28;20515;-75
2022/11/28 11:32:50;;;;;;;15.07;10.55;;;9.50;99.90;;;;;;5051200;28;20392;-75
2022/11/28 11:35:23;;;;;;;16.02;10.68;;;9.50;99.90;;;;;;5061339;28;20049;-75
2022/11/28 11:37:49;;;;;;;17.05;10.63;;;9.50;99.90;;;;;;5063340;28;20024;-75
2022/11/28 11:40:28;;;;;;;17.50;9.68;;;9.50;99.90;;;;;;5044098;28;20025;-74
2022/11/28 11:43:00;;;;;;;17.15;11.05;;;9.50;99.90;;;;;;5044108;28;20032;-74
2022/11/28 11:45:29;;;;;;;18.90;10.52;;;9.50;99.90;;;;;;5064187;28;20035;-75
2022/11/28 11:47:55;;;;;;;13.02;8.80;;;9.50;99.90;;;;;;5046594;28;20119;-75
2022/11/28 11:50:23;;;;;;;15.68;8.80;;;9.60;99.90;;;;;;5061380;28;20539;-74
2022/11/28 11:53:09;;;;;;;17.88;9.32;;;9.50;99.90;;;;;;5060758;28;20235;-75
2022/11/28 11:55:50;;;;;;;14.40;9.05;;;9.60;99.90;;;;;;5062461;28;20025;-74
2022/11/28 11:58:24;;;;;;;14.30;9.05;;;9.60;99.90;;;;;;5061710;28;20538;-75
2022/11/28 12:00:53;;;;;;;15.85;8.65;;;9.50;99.90;;;;;;5060939;28;20033;-75
2022/11/28 12:03:24;;;;;;;10.18;7.88;;;9.50;99.90;;;;;;5048717;28;20039;-74
2022/11/28 12:05:55;;;;;;;16.58;9.07;;;9.50;99.90;;;;;;5043817;28;20040;-75
2022/11/28 12:08:40;;;;;;;17.07;8.43;;;9.50;99.90;;;;;;5062580;28;20102;-74
2022/11/28 12:11:11;;;;;;;13.45;8.82;;;9.60;99.90;;;;;;5060403;28;20314;-75
2022/11/28 12:13:37;;;;;;;10.18;7.70;;;9.50;99.90;;;;;;5065160;28;20028;-75
2022/11/28 12:16:24;;;;;;;17.35;8.85;;;9.60;99.90;;;;;;5042814;28;20484;-74
2022/11/28 12:19:02;;;;;;;13.27;9.18;;;9.50;99.90;;;;;;5060946;28;20040;-75
2022/11/28 12:22:06;;;;;;;12.15;8.43;;;9.50;99.90;;;;;;5060674;28;20066;-74
2022/11/28 12:24:50;;;;;;;11.95;8.52;;;9.60;99.90;;;;;;5061644;28;20229;-75
2022/11/28 12:27:33;;;;;;;14.55;8.85;;;9.60;99.90;;;;;;5042087;28;20491;-75
2022/11/28 12:30:46;;;;;;;14.63;8.63;;;9.60;99.90;;;;;;5043706;28;20017;-75
2022/11/28 12:33:31;;;;;;;15.77;9.43;;;9.60;99.90;;;;;;5006311;28;20032;-75
2022/11/28 12:35:59;;;;;;;18.35;9.55;;;9.50;99.90;;;;;;5062393;28;20048;-75
2022/11/28 12:38:54;;;;;;;17.55;10.05;;;9.60;99.90;;;;;;5061497;28;20036;-74
2022/11/28 12:41:28;;;;;;;20.90;9.68;;;9.60;99.90;;;;;;5061802;28;20506;-74
2022/11/28 12:44:52;;;;;;;14.10;10.70;;;9.60;99.90;;;;;;5060629;28;20370;-75
2022/11/28 12:47:37;;;;;;;16.77;10.20;;;9.50;99.90;;;;;;5005033;28;20073;-74
2022/11/28 12:50:17;;;;;;;17.88;9.88;;;9.50;99.90;;;;;;5038543;28;20095;-74
2022/11/28 12:53:04;;;;;;;19.17;10.32;;;9.50;99.90;;;;;;5057279;28;20041;-74
2022/11/28 12:55:30;;;;;;;14.07;9.82;;;9.50;99.90;;;;;;5061226;28;20052;-74
2022/11/28 12:57:59;;;;;;;12.45;9.18;;;9.50;99.90;;;;;;5060565;28;20507;-74
2022/11/28 13:00:26;;;;;;;13.38;8.05;;;9.50;99.90;;;;;;5044136;28;20460;-74
2022/11/28 13:03:19;;;;;;;17.23;8.52;;;9.50;99.90;;;;;;5060658;28;20060;-74
2022/11/28 13:05:54;;;;;;;17.20;9.05;;;9.50;99.90;;;;;;5042220;28;20484;-75
2022/11/28 13:08:34;;;;;;;12.73;8.30;;;9.50;99.90;;;;;;5061648;28;20051;-75
2022/11/28 13:11:27;;;;;;;15.02;8.48;;;9.50;99.90;;;;;;5062916;28;20099;-75
2022/11/28 13:14:11;;;;;;;10.50;8.48;;;9.40;99.90;;;;;;5062467;28;20040;-75
2022/11/28 13:16:36;;;;;;;9.63;8.52;;;9.40;99.90;;;;;;5060615;28;20028;-74
2022/11/28 13:19:37;;;;;;;16.13;8.85;;;9.40;99.90;;;;;;5044079;28;20032;-74